Detailed System and Site Information

System Data Health
Measure Timestamp Ago Health
Web Server Live 02:47:32, 29th June 2016 0 s health
Last live-data upload from local system (nw3) 02:47:07, 29th June 2016 25 s health
Last upload of secondary data 02:00:22, 29th June 2016 47 mins health
Latest Webcam upload 02:47:08, 29th June 2016 24 s health
Last upload of 24hr data log 02:44:08, 29th June 2016 3 mins health
Last full data process 02:45:08, 29th June 2016 2 mins health
Last data downtime (>15 mins) 15:46:02, 25th February 2016 124 days
Local System and Site Information
Measure Value
WD Version & Build # 10.37R - 40
WD Start Time 12:11 11/05/16
WD Data Count 1460963
WD Memory Use 94,716 K
--- ---
Windows Uptime 48 Days 13 Hours 50 Minutes 42 Seconds
Free System Memory 2333 MB (Max: 4GB)
--- ---
Station Altitude 57 m (187 ft)
Station Latitude 51.556
Station Longitude -0.154
Machine Room Conditions
Measure Value
Temperature 22.0 °C
Temperature Trend -0.3 °C /hr
Relative Humidity 40%
Dew Point 7.8 °C
--- ---
Tmin Today 22.0 °C at 01:59
Tmax Today 22.5 °C at 00:00
Hmin Today 38% at 00:00
Hmax Today 40% at 01:12
Tmin Yesterday 22.5 °C at 23:36
Tmax Yesterday 26.3 °C at 15:10

Site owner and administrator: Ben Lee-Rodgers (2010 - present)

Last 10hrs Temp/Hum for Secondary Sensor and Indoors

Extra Sensors/Indoor

Other

Raw METAR from EGLL (Heathrow)

EGLL 290050Z AUTO 28017KT 9999 BKN010 OVC021 14/11 Q1009 BECMG FEW010
Decode Instructions
Source

WD Screenshot

not available